Time;durP1;ratioP1;P1;durP2;ratioP2;P2;SDS_P1;SDS_P2;PMS_P1;PMS_P2;Temp;Humidity;BMP_temperature;BMP_pressure;BME280_temperature;BME280_humidity;BME280_pressure;Samples;Min_cycle;Max_cycle;Signal;HPM_P1;HPM_P2
2023/10/12 00:02:27;;;;;;;6.82;3.90;;;;;;;15.10;48.27;95772.13;5004852;28;20182;-78
2023/10/12 00:04:53;;;;;;;5.70;4.20;;;;;;;15.12;48.53;95783.38;5026029;28;20235;-78
2023/10/12 00:07:36;;;;;;;5.28;4.18;;;;;;;15.11;48.64;95777.25;5023956;28;20517;-78
2023/10/12 00:12:35;;;;;;;7.72;5.60;;;;;;;15.04;48.69;95773.59;5026398;28;20250;-78
2023/10/12 00:15:05;;;;;;;6.97;5.15;;;;;;;14.77;49.70;95761.41;5020632;28;20919;-78
2023/10/12 00:17:33;;;;;;;6.07;4.82;;;;;;;14.55;50.28;95766.28;5027021;28;20293;-78
2023/10/12 00:19:59;;;;;;;7.32;5.03;;;;;;;14.70;49.92;95760.38;5024549;28;20305;-78
2023/10/12 00:22:25;;;;;;;6.30;4.65;;;;;;;14.73;49.99;95763.56;5023030;28;20303;-77
2023/10/12 00:24:52;;;;;;;8.23;4.85;;;;;;;14.69;49.84;95756.91;5022030;28;20227;-77
2023/10/12 00:27:18;;;;;;;6.97;4.15;;;;;;;14.62;50.24;95749.75;5026484;28;20246;-80
2023/10/12 00:29:48;;;;;;;5.10;4.00;;;;;;;14.66;49.86;95740.53;5017603;28;20237;-80
2023/10/12 00:32:13;;;;;;;4.80;4.10;;;;;;;14.72;49.61;95739.88;5023976;28;20182;-79
2023/10/12 00:34:48;;;;;;;6.68;3.67;;;;;;;14.60;49.99;95742.00;5024098;28;20223;-77
2023/10/12 00:37:14;;;;;;;7.00;4.10;;;;;;;14.58;50.03;95733.38;5028273;28;20217;-77
2023/10/12 00:42:18;;;;;;;5.28;3.70;;;;;;;14.71;49.81;95735.59;5023920;28;20230;-80
2023/10/12 00:44:47;;;;;;;8.43;4.18;;;;;;;14.65;49.65;95731.75;5027323;28;20192;-80
2023/10/12 00:47:19;;;;;;;4.68;3.97;;;;;;;14.56;49.98;95724.75;5028104;28;20182;-80
2023/10/12 00:49:51;;;;;;;6.05;4.15;;;;;;;14.49;50.27;95729.84;5029959;28;20352;-77
2023/10/12 00:52:34;;;;;;;7.65;4.57;;;;;;;14.48;50.34;95730.81;5022086;28;20249;-78
2023/10/12 00:55:20;;;;;;;4.82;4.00;;;;;;;14.48;50.56;95732.63;5023832;28;20228;-78
2023/10/12 00:57:45;;;;;;;7.60;4.35;;;;;;;14.46;50.27;95735.47;5015538;28;20210;-78
2023/10/12 01:00:15;;;;;;;5.18;4.38;;;;;;;14.48;50.41;95720.22;5017329;28;20211;-78
2023/10/12 01:02:42;;;;;;;7.18;4.30;;;;;;;14.38;50.43;95730.13;5022347;28;20213;-77
2023/10/12 01:05:09;;;;;;;8.63;4.68;;;;;;;14.33;50.80;95732.41;4999441;28;20231;-78
2023/10/12 01:07:36;;;;;;;4.07;3.67;;;;;;;14.29;50.79;95723.94;5015237;28;20215;-79
2023/10/12 01:10:06;;;;;;;6.70;3.92;;;;;;;14.37;50.66;95727.63;5019122;28;20238;-78
2023/10/12 01:12:34;;;;;;;7.03;3.50;;;;;;;14.36;50.67;95718.88;5010919;28;20241;-76
2023/10/12 01:15:09;;;;;;;6.22;3.97;;;;;;;14.32;50.93;95717.50;5018087;28;20218;-78
2023/10/12 01:17:37;;;;;;;5.82;4.00;;;;;;;14.31;50.68;95719.34;5032698;28;20189;-78
2023/10/12 01:20:16;;;;;;;4.07;3.67;;;;;;;14.38;50.59;95719.53;5018487;28;20182;-79
2023/10/12 01:22:42;;;;;;;4.47;3.95;;;;;;;14.28;50.56;95716.19;5018243;28;20225;-79
2023/10/12 01:25:12;;;;;;;6.80;4.28;;;;;;;14.25;51.01;95722.63;5020493;28;20230;-79
2023/10/12 01:27:43;;;;;;;4.70;4.30;;;;;;;14.27;50.99;95720.66;5017792;28;20214;-77
2023/10/12 01:30:22;;;;;;;6.97;4.15;;;;;;;14.16;51.10;95718.25;5017598;28;20222;-78
2023/10/12 01:32:57;;;;;;;4.43;3.83;;;;;;;14.17;51.00;95722.56;5016118;28;20806;-77
2023/10/12 01:35:27;;;;;;;5.03;3.90;;;;;;;14.15;50.94;95710.50;5018609;28;20603;-76
2023/10/12 01:38:00;;;;;;;4.47;3.55;;;;;;;14.07;50.90;95717.38;5020632;28;20257;-76
2023/10/12 01:40:26;;;;;;;5.90;3.83;;;;;;;14.04;51.24;95711.59;5017692;28;20223;-77
2023/10/12 01:42:52;;;;;;;7.30;4.10;;;;;;;14.05;50.98;95716.69;5012949;28;20613;-77
2023/10/12 01:47:51;;;;;;;5.53;4.13;;;;;;;14.04;50.96;95712.41;5016676;28;20178;-77
2023/10/12 01:50:16;;;;;;;5.35;3.83;;;;;;;14.00;51.15;95705.75;5016064;28;20270;-77
2023/10/12 01:52:44;;;;;;;7.00;4.22;;;;;;;14.08;50.92;95718.19;5015285;28;20380;-77
2023/10/12 01:55:17;;;;;;;8.25;4.60;;;;;;;14.00;50.97;95715.50;5012926;28;20313;-77
2023/10/12 01:57:53;;;;;;;7.32;4.80;;;;;;;14.00;50.83;95715.50;5014988;28;20348;-76
2023/10/12 02:00:26;;;;;;;6.72;3.88;;;;;;;13.94;51.16;95716.13;5015076;28;20229;-76
2023/10/12 02:03:01;;;;;;;8.88;5.30;;;;;;;13.86;51.65;95719.56;5017121;28;20190;-77
2023/10/12 02:05:34;;;;;;;7.97;4.43;;;;;;;13.94;51.53;95724.91;5020604;28;20380;-77
2023/10/12 02:08:05;;;;;;;6.25;4.85;;;;;;;13.88;51.47;95725.53;5015600;28;20233;-77
2023/10/12 02:10:43;;;;;;;7.18;5.30;;;;;;;13.58;52.41;95724.97;5018803;28;20221;-76
2023/10/12 02:13:10;;;;;;;10.65;5.63;;;;;;;13.37;53.21;95732.38;5017513;28;20218;-77
2023/10/12 02:15:37;;;;;;;7.90;4.90;;;;;;;13.20;53.90;95728.72;5015293;28;20229;-76
2023/10/12 02:18:10;;;;;;;9.75;5.55;;;;;;;13.02;54.52;95734.00;5015013;28;20288;-76
2023/10/12 02:20:42;;;;;;;7.07;5.45;;;;;;;12.95;54.86;95732.91;5012083;28;20213;-76
2023/10/12 02:23:11;;;;;;;6.57;5.93;;;;;;;12.94;54.69;95732.09;5015903;28;20178;-77
2023/10/12 02:25:40;;;;;;;6.60;5.93;;;;;;;12.67;55.59;95735.59;5011497;28;20227;-77
2023/10/12 02:28:08;;;;;;;6.50;5.90;;;;;;;12.88;55.18;95729.22;5014769;28;20210;-77
2023/10/12 02:30:35;;;;;;;7.65;6.35;;;;;;;13.02;54.50;95724.25;5018187;28;20222;-77
2023/10/12 02:33:00;;;;;;;9.75;6.00;;;;;;;12.96;54.49;95732.78;5016554;28;20216;-77
2023/10/12 02:35:36;;;;;;;8.65;6.28;;;;;;;13.01;54.40;95727.88;5015050;28;20285;-76
2023/10/12 02:38:15;;;;;;;5.72;5.22;;;;;;;13.07;54.14;95726.47;5014316;28;20217;-77
2023/10/12 02:40:43;;;;;;;8.32;5.63;;;;;;;13.20;53.82;95726.06;5018979;28;20992;-77
2023/10/12 02:43:10;;;;;;;7.20;6.25;;;;;;;13.07;54.11;95737.03;5019587;28;20222;-78
2023/10/12 02:45:41;;;;;;;6.53;5.60;;;;;;;13.02;54.17;95728.72;5012813;28;20272;-77
2023/10/12 02:48:12;;;;;;;8.77;6.07;;;;;;;12.82;54.94;95728.00;5019789;28;20225;-77
2023/10/12 02:50:57;;;;;;;9.90;6.38;;;;;;;12.72;54.87;95738.63;5018466;28;20179;-76
2023/10/12 02:53:30;;;;;;;6.90;6.20;;;;;;;12.68;55.16;95731.97;5017818;28;20230;-77
2023/10/12 02:55:58;;;;;;;8.15;6.20;;;;;;;12.88;54.51;95732.66;5016517;28;20218;-77
2023/10/12 02:58:24;;;;;;;6.78;6.05;;;;;;;12.56;55.36;95735.75;5016379;28;20222;-77
2023/10/12 03:00:56;;;;;;;7.72;5.90;;;;;;;12.64;55.24;95727.13;5017829;28;20233;-77
2023/10/12 03:03:25;;;;;;;8.63;6.53;;;;;;;12.63;55.06;95730.75;5018915;28;20216;-77
2023/10/12 03:05:53;;;;;;;8.50;6.50;;;;;;;12.60;55.25;95718.69;5012050;28;20183;-78
2023/10/12 03:08:22;;;;;;;10.93;6.90;;;;;;;12.63;55.29;95725.47;5019316;28;20204;-78
2023/10/12 03:11:31;;;;;;;8.13;6.13;;;;;;;12.50;55.35;95715.25;5015254;28;20364;-78
2023/10/12 03:13:41;;;;;;;9.40;6.80;;;;;;;12.38;55.89;95721.72;5010922;28;20225;-79
2023/10/12 03:18:43;;;;;;;7.15;6.43;;;;;;;12.54;55.54;95719.28;5012227;28;20216;-79
2023/10/12 03:21:11;;;;;;;8.10;5.80;;;;;;;12.61;55.21;95708.94;5016771;28;20233;-78
2023/10/12 03:23:41;;;;;;;8.50;6.10;;;;;;;12.68;54.60;95716.13;5022964;28;20174;-78
2023/10/12 03:28:50;;;;;;;8.90;6.22;;;;;;;12.32;55.61;95710.78;5017450;28;20632;-76
2023/10/12 03:31:34;;;;;;;12.13;6.50;;;;;;;12.49;55.42;95708.34;5012075;28;20210;-76
2023/10/12 03:33:59;;;;;;;9.85;6.20;;;;;;;12.41;55.52;95718.78;5017047;28;20800;-77
2023/10/12 03:36:32;;;;;;;7.47;6.55;;;;;;;12.40;55.44;95707.38;5015761;28;20233;-76
2023/10/12 03:39:12;;;;;;;9.00;5.55;;;;;;;12.50;55.09;95716.06;5018327;28;20219;-75
2023/10/12 03:42:10;;;;;;;7.55;6.50;;;;;;;12.24;56.09;95718.56;5014487;28;20781;-77
2023/10/12 03:52:27;;;;;;;9.88;6.60;;;;;;;12.22;56.10;95723.16;5015454;28;20230;-76
2023/10/12 04:05:34;;;;;;;7.55;6.25;;;;;;;12.15;56.12;95719.44;5004696;28;20231;-73
2023/10/12 04:08:01;;;;;;;7.55;6.10;;;;;;;12.11;56.49;95725.97;5005558;28;20839;-73
2023/10/12 04:18:42;;;;;;;8.45;6.85;;;;;;;12.22;56.28;95730.25;5005112;28;20223;-75
2023/10/12 04:21:14;;;;;;;8.82;6.75;;;;;;;12.14;56.26;95730.97;4985521;28;20260;-74
2023/10/12 04:23:49;;;;;;;9.77;7.55;;;;;;;12.11;56.57;95725.97;4989109;28;20202;-73
2023/10/12 04:36:36;;;;;;;11.82;7.35;;;;;;;11.78;57.66;95725.44;4966835;28;20979;-72
2023/10/12 04:46:59;;;;;;;12.73;8.00;;;;;;;11.82;57.57;95718.94;4977152;28;20228;-74
2023/10/12 04:52:26;;;;;;;9.07;8.20;;;;;;;11.65;58.20;95709.13;4977412;28;20286;-70
2023/10/12 04:57:27;;;;;;;14.30;8.50;;;;;;;11.61;58.36;95716.47;4984452;28;20231;-73
2023/10/12 05:00:17;;;;;;;13.45;7.47;;;;;;;11.65;58.26;95711.75;4966740;28;20246;-73
2023/10/12 05:07:57;;;;;;;13.43;8.25;;;;;;;11.75;58.23;95720.47;4986188;28;20309;-73
2023/10/12 05:13:04;;;;;;;13.13;8.35;;;;;;;11.92;57.78;95729.47;5018819;28;20222;-73
2023/10/12 05:15:41;;;;;;;13.55;7.65;;;;;;;11.99;57.30;95735.00;5023414;28;20218;-73
2023/10/12 05:18:11;;;;;;;10.07;7.03;;;;;;;11.97;56.95;95735.16;5019286;28;20218;-74
2023/10/12 05:20:42;;;;;;;13.25;6.75;;;;;;;12.11;56.40;95733.88;5018319;28;20183;-73
2023/10/12 05:23:10;;;;;;;10.90;5.97;;;;;;;12.30;55.39;95736.44;5020548;28;20182;-71
2023/10/12 05:26:07;;;;;;;10.45;6.53;;;;;;;12.23;55.13;95738.00;5005988;28;20218;-73
2023/10/12 05:28:28;;;;;;;11.93;5.80;;;;;;;12.28;54.84;95737.56;5020374;28;20306;-74
2023/10/12 05:36:00;;;;;;;11.15;4.78;;;;;;;12.42;53.36;95752.09;5013098;28;20242;-73
2023/10/12 05:38:34;;;;;;;8.85;4.97;;;;;;;12.40;53.45;95754.03;5015163;28;20272;-72
2023/10/12 05:41:08;;;;;;;7.95;4.55;;;;;;;12.46;53.11;95754.28;5016196;28;20210;-74
2023/10/12 05:43:39;;;;;;;9.32;5.03;;;;;;;12.44;53.14;95747.50;5011780;28;20210;-74
2023/10/12 05:46:16;;;;;;;8.07;5.28;;;;;;;12.34;53.37;95756.25;5017456;28;20215;-76
2023/10/12 05:48:46;;;;;;;9.02;5.65;;;;;;;12.25;53.29;95756.31;5013890;28;20245;-74
2023/10/12 05:51:21;;;;;;;15.20;5.43;;;;;;;12.09;54.00;95754.28;5010444;28;20226;-74
2023/10/12 05:54:09;;;;;;;13.88;6.20;;;;;;;12.17;53.99;95753.56;5014653;28;20198;-73
2023/10/12 05:56:36;;;;;;;12.50;5.43;;;;;;;12.21;54.00;95754.94;5020100;28;20218;-74
2023/10/12 05:59:12;;;;;;;8.57;5.35;;;;;;;12.40;53.45;95754.84;5021641;28;20244;-75
2023/10/12 06:01:38;;;;;;;10.10;6.28;;;;;;;12.43;53.27;95753.72;5009557;28;20686;-73
2023/10/12 06:04:05;;;;;;;8.25;6.05;;;;;;;12.42;53.55;95749.44;5004530;28;20264;-75
2023/10/12 06:06:35;;;;;;;10.85;5.55;;;;;;;12.43;53.64;95746.69;5009675;28;20345;-76
2023/10/12 06:11:59;;;;;;;12.88;7.40;;;;;;;12.67;53.33;95754.06;5022133;28;20245;-76
2023/10/12 06:14:25;;;;;;;12.18;6.78;;;;;;;12.66;53.58;95762.94;5004770;28;20210;-76
2023/10/12 06:16:59;;;;;;;15.30;7.38;;;;;;;12.81;53.37;95752.72;5004446;28;20226;-82
2023/10/12 06:19:29;;;;;;;10.25;7.28;;;;;;;12.88;53.14;95758.25;5000438;28;20229;-75
2023/10/12 06:22:00;;;;;;;13.35;7.18;;;;;;;12.93;52.95;95759.47;5001724;28;20228;-80
2023/10/12 06:24:33;;;;;;;10.65;6.57;;;;;;;13.01;52.72;95761.34;5017574;28;20256;-80
2023/10/12 06:27:02;;;;;;;9.25;6.75;;;;;;;13.09;52.57;95756.16;4997806;28;20230;-78
2023/10/12 06:29:28;;;;;;;9.45;7.05;;;;;;;13.15;52.24;95755.59;4997693;28;20400;-78
2023/10/12 06:31:59;;;;;;;10.45;7.20;;;;;;;13.13;52.39;95752.25;4998218;28;20276;-80
2023/10/12 06:34:29;;;;;;;11.90;6.97;;;;;;;13.11;52.49;95764.78;5001519;28;20226;-78
2023/10/12 06:36:58;;;;;;;9.52;6.68;;;;;;;13.09;52.59;95755.34;4997042;28;20228;-72
2023/10/12 06:44:25;;;;;;;10.65;7.15;;;;;;;13.37;52.02;95756.16;5016121;28;20585;-72
2023/10/12 06:46:53;;;;;;;14.50;7.97;;;;;;;13.35;52.23;95763.41;5004296;28;20229;-77
2023/10/12 06:49:23;;;;;;;12.98;7.72;;;;;;;13.48;51.84;95757.75;5027233;28;20228;-77
2023/10/12 06:52:03;;;;;;;10.15;7.55;;;;;;;13.49;51.68;95756.75;5036669;28;20231;-71
2023/10/12 07:02:34;;;;;;;14.30;8.23;;;;;;;13.73;51.13;95764.06;5032828;28;20525;-71
2023/10/12 07:05:02;;;;;;;13.43;8.13;;;;;;;13.71;51.08;95764.19;5031446;28;20252;-70
2023/10/12 07:07:30;;;;;;;9.95;7.72;;;;;;;13.76;51.03;95758.47;5032941;28;20219;-71
2023/10/12 07:12:48;;;;;;;10.27;8.23;;;;;;;13.87;50.68;95761.72;5034076;28;20233;-74
2023/10/12 07:15:23;;;;;;;9.50;8.13;;;;;;;13.90;50.51;95760.56;5029900;28;20217;-75
2023/10/12 07:17:50;;;;;;;12.32;7.50;;;;;;;13.93;50.37;95760.25;5030751;28;20207;-75
2023/10/12 07:22:57;;;;;;;9.02;6.45;;;;;;;14.10;50.02;95761.19;5032951;28;20221;-74
2023/10/12 07:25:25;;;;;;;9.25;6.82;;;;;;;14.27;49.94;95762.13;5033729;28;20228;-75
2023/10/12 07:27:59;;;;;;;12.10;7.68;;;;;;;14.23;50.07;95760.78;5028882;28;20248;-78
2023/10/12 07:30:33;;;;;;;9.73;6.95;;;;;;;14.13;50.12;95764.34;5033207;28;20267;-74
2023/10/12 07:33:07;;;;;;;14.50;8.05;;;;;;;14.24;49.71;95762.44;5033620;28;20222;-77
2023/10/12 07:35:36;;;;;;;14.05;7.78;;;;;;;14.34;49.56;95752.59;5033268;28;20215;-71
2023/10/12 07:38:15;;;;;;;10.23;7.35;;;;;;;14.28;49.67;95754.03;5033141;28;20190;-73
2023/10/12 07:41:03;;;;;;;12.30;7.85;;;;;;;14.29;49.83;95757.50;5035102;28;20255;-83
2023/10/12 07:43:31;;;;;;;9.25;7.35;;;;;;;14.50;49.58;95751.84;5040468;28;20217;-75
2023/10/12 07:46:10;;;;;;;13.77;7.82;;;;;;;14.68;48.96;95759.75;5042911;28;20237;-78
2023/10/12 07:48:45;;;;;;;9.77;7.45;;;;;;;14.59;49.17;95755.38;5036376;28;20210;-78
2023/10/12 07:51:53;;;;;;;11.43;8.75;;;;;;;14.75;49.08;95756.31;5040227;28;20228;-82
2023/10/12 07:54:25;;;;;;;12.30;7.70;;;;;;;14.75;48.49;95758.94;5036339;28;20230;-83
2023/10/12 07:56:51;;;;;;;9.15;7.30;;;;;;;14.81;48.82;95752.19;5040164;28;20177;-80
2023/10/12 07:59:17;;;;;;;12.52;7.32;;;;;;;15.02;48.23;95750.91;5039933;28;20196;-79
2023/10/12 08:01:50;;;;;;;11.43;7.82;;;;;;;15.05;47.81;95743.50;5039491;28;20205;-77
2023/10/12 08:04:31;;;;;;;14.45;7.95;;;;;;;14.94;47.81;95747.25;5035218;28;20324;-74
2023/10/12 08:06:57;;;;;;;12.93;7.05;;;;;;;15.04;47.82;95743.63;5039735;28;20228;-71
2023/10/12 08:11:48;;;;;;;12.75;7.65;;;;;;;15.11;47.61;95739.34;5035413;28;20301;-74
2023/10/12 08:19:39;;;;;;;9.38;7.60;;;;;;;15.47;46.80;95739.06;5036156;28;20248;-74
2023/10/12 08:22:14;;;;;;;12.73;8.15;;;;;;;15.53;46.90;95728.66;5038107;28;20221;-83
2023/10/12 08:24:39;;;;;;;11.32;8.52;;;;;;;15.68;46.26;95726.16;5035629;28;20237;-81
2023/10/12 08:27:06;;;;;;;12.50;8.32;;;;;;;15.68;46.17;95722.69;5039075;28;20236;-82
2023/10/12 08:40:07;;;;;;;11.32;7.18;;;;;;;15.97;46.27;95708.94;5033730;28;21135;-71
2023/10/12 08:44:59;;;;;;;11.05;7.13;;;;;;;16.01;46.09;95694.34;5036871;28;20301;-73
2023/10/12 08:47:40;;;;;;;11.32;7.38;;;;;;;16.23;45.61;95698.13;5036858;28;20231;-73
2023/10/12 08:52:50;;;;;;;12.25;7.35;;;;;;;16.40;44.85;95688.28;5016145;28;20571;-77
2023/10/12 08:55:19;;;;;;;9.15;7.43;;;;;;;16.57;44.70;95694.34;5020204;28;20226;-80
2023/10/12 08:58:02;;;;;;;9.50;7.30;;;;;;;16.66;44.22;95691.50;5000750;28;20211;-74
2023/10/12 09:03:24;;;;;;;8.95;7.25;;;;;;;16.72;44.12;95687.31;5011341;28;20222;-73
2023/10/12 09:05:51;;;;;;;14.10;7.45;;;;;;;17.01;43.47;95683.22;5020265;28;20281;-74
2023/10/12 09:10:49;;;;;;;9.00;6.90;;;;;;;16.92;43.67;95677.94;5016710;28;20219;-75
2023/10/12 09:13:19;;;;;;;14.38;7.43;;;;;;;17.00;43.55;95666.44;5015676;28;20242;-80
2023/10/12 09:15:48;;;;;;;14.60;7.95;;;;;;;16.81;43.52;95666.88;5015883;28;20562;-81
2023/10/12 09:18:17;;;;;;;11.73;7.88;;;;;;;16.78;43.70;95669.88;5011585;28;20239;-80
2023/10/12 09:23:31;;;;;;;10.52;7.45;;;;;;;17.06;43.15;95662.25;5019513;28;20174;-76
2023/10/12 09:29:08;;;;;;;14.35;7.75;;;;;;;17.19;42.71;95642.06;5018135;28;20219;-77
2023/10/12 09:36:28;;;;;;;12.30;7.72;;;;;;;17.74;42.39;95625.97;5013442;28;20221;-75
2023/10/12 09:38:57;;;;;;;14.88;7.68;;;;;;;18.06;42.25;95625.66;5013327;28;20230;-76
2023/10/12 09:41:34;;;;;;;11.70;8.18;;;;;;;18.08;41.85;95623.66;5015976;28;20209;-75
2023/10/12 09:44:06;;;;;;;8.23;6.57;;;;;;;18.11;41.73;95618.97;5020248;28;20301;-73
2023/10/12 09:46:34;;;;;;;12.75;7.63;;;;;;;18.40;40.18;95618.13;5014863;28;20229;-74
2023/10/12 09:49:06;;;;;;;15.27;7.82;;;;;;;18.29;41.06;95614.13;5018906;28;20221;-74
2023/10/12 09:51:45;;;;;;;14.38;8.02;;;;;;;18.30;41.09;95607.78;5012983;28;20236;-74
2023/10/12 09:54:27;;;;;;;11.27;7.72;;;;;;;18.26;41.28;95609.97;5011570;28;20214;-73
2023/10/12 09:56:59;;;;;;;14.20;8.10;;;;;;;18.26;40.66;95612.66;5016897;28;20300;-74
2023/10/12 09:59:31;;;;;;;8.18;7.35;;;;;;;18.22;40.65;95599.88;5017696;28;20548;-74
2023/10/12 10:02:10;;;;;;;10.85;7.28;;;;;;;18.10;41.11;95582.75;5016062;28;20225;-75
2023/10/12 10:04:40;;;;;;;12.27;6.82;;;;;;;18.33;41.48;95580.78;5019649;28;20237;-77
2023/10/12 10:09:45;;;;;;;11.75;6.80;;;;;;;18.57;40.25;95571.63;5014241;28;20262;-77
2023/10/12 10:12:15;;;;;;;10.02;6.68;;;;;;;18.72;40.67;95572.41;5017544;28;20781;-78
2023/10/12 10:14:47;;;;;;;9.65;7.03;;;;;;;18.87;39.94;95566.25;5000711;28;20211;-79
2023/10/12 10:17:15;;;;;;;13.50;7.28;;;;;;;18.91;39.57;95560.34;5014965;28;20182;-78
2023/10/12 10:19:44;;;;;;;9.55;7.47;;;;;;;19.04;39.30;95567.66;5016386;28;20215;-79
2023/10/12 10:22:14;;;;;;;14.15;6.32;;;;;;;19.14;39.04;95565.50;5012660;28;20223;-78
2023/10/12 10:24:43;;;;;;;8.93;7.07;;;;;;;19.30;39.06;95561.72;5012798;28;20967;-76
2023/10/12 10:27:14;;;;;;;11.20;6.95;;;;;;;19.12;39.03;95564.03;5008751;28;20419;-75
2023/10/12 10:30:18;;;;;;;10.55;6.70;;;;;;;19.23;39.39;95549.38;5017105;28;20194;-73
2023/10/12 10:32:45;;;;;;;7.35;5.88;;;;;;;19.49;39.04;95552.25;5016463;28;20214;-74
2023/10/12 10:35:18;;;;;;;8.50;6.15;;;;;;;19.58;38.21;95547.56;5013776;28;20183;-74
2023/10/12 10:37:57;;;;;;;10.55;5.88;;;;;;;19.75;38.52;95542.78;5013915;28;20220;-77
2023/10/12 10:40:39;;;;;;;12.50;6.18;;;;;;;19.89;38.33;95543.69;5010310;28;20228;-77
2023/10/12 10:43:08;;;;;;;9.80;5.47;;;;;;;20.13;37.63;95539.69;5010623;28;20712;-76
2023/10/12 10:45:37;;;;;;;10.18;6.13;;;;;;;20.11;37.47;95537.25;5010946;28;20935;-74
2023/10/12 10:48:04;;;;;;;13.35;5.90;;;;;;;20.21;36.75;95532.38;5017633;28;20241;-74
2023/10/12 10:50:33;;;;;;;10.48;6.20;;;;;;;20.17;37.10;95522.28;5015875;28;20210;-73
2023/10/12 10:53:00;;;;;;;8.82;5.80;;;;;;;20.33;37.32;95513.09;5010736;28;20219;-73
2023/10/12 10:55:30;;;;;;;12.23;6.70;;;;;;;20.47;36.52;95515.63;5014915;28;20580;-74
2023/10/12 10:57:57;;;;;;;8.30;5.72;;;;;;;20.45;36.67;95515.00;5012256;28;20241;-75
2023/10/12 11:00:33;;;;;;;8.57;5.72;;;;;;;20.57;36.69;95503.75;5017089;28;20235;-74
2023/10/12 11:03:03;;;;;;;15.82;5.80;;;;;;;20.67;36.99;95496.97;5011112;28;20227;-74
2023/10/12 11:05:29;;;;;;;12.55;6.20;;;;;;;20.85;36.48;95493.72;5019705;28;20233;-74
2023/10/12 11:07:55;;;;;;;9.23;5.80;;;;;;;20.99;36.15;95494.56;5015710;28;20599;-76
2023/10/12 11:10:31;;;;;;;10.13;6.15;;;;;;;21.13;35.34;95482.00;5014764;28;20230;-76
2023/10/12 11:13:00;;;;;;;8.50;5.28;;;;;;;20.99;35.66;95480.38;5019497;28;20218;-74
2023/10/12 11:15:26;;;;;;;9.80;6.13;;;;;;;21.01;35.60;95481.81;5020823;28;20234;-77
2023/10/12 11:18:07;;;;;;;7.63;5.38;;;;;;;21.04;35.48;95478.72;5018001;28;20252;-76
2023/10/12 11:20:49;;;;;;;10.27;5.72;;;;;;;21.17;35.72;95477.06;5020194;28;20209;-77
2023/10/12 11:23:16;;;;;;;9.27;6.32;;;;;;;21.33;35.51;95472.13;5019491;28;20171;-76
2023/10/12 11:25:42;;;;;;;9.73;5.72;;;;;;;21.55;35.20;95463.91;5014555;28;20218;-74
2023/10/12 11:28:19;;;;;;;8.90;5.57;;;;;;;21.63;34.44;95460.19;5014483;28;20218;-73
2023/10/12 11:30:45;;;;;;;8.70;5.82;;;;;;;21.59;34.71;95452.53;5015791;28;20249;-76
2023/10/12 11:33:10;;;;;;;9.00;6.03;;;;;;;21.75;34.40;95453.13;5001782;28;20229;-68
2023/10/12 11:35:41;;;;;;;9.52;6.00;;;;;;;21.82;34.58;95440.56;5017827;28;20186;-72
2023/10/12 11:38:19;;;;;;;8.35;5.15;;;;;;;21.92;34.23;95448.13;5014072;28;20321;-81
2023/10/12 11:40:48;;;;;;;8.82;5.60;;;;;;;21.94;34.28;95441.53;5018598;28;20336;-84
2023/10/12 11:43:13;;;;;;;9.65;5.60;;;;;;;22.11;33.93;95436.53;5013107;28;20372;-81
2023/10/12 11:46:01;;;;;;;8.60;5.30;;;;;;;22.29;33.74;95430.47;5017626;28;20221;-77
2023/10/12 11:48:28;;;;;;;7.80;5.45;;;;;;;22.22;33.76;95432.38;5015384;28;20230;-72
2023/10/12 11:50:55;;;;;;;9.10;5.82;;;;;;;22.29;33.21;95426.97;5020685;28;20230;-71
2023/10/12 11:53:20;;;;;;;11.25;4.78;;;;;;;22.30;33.71;95421.41;5014337;28;20200;-73
2023/10/12 11:55:49;;;;;;;6.80;5.40;;;;;;;22.34;33.86;95429.84;5017619;28;20481;-75
2023/10/12 11:58:19;;;;;;;7.03;5.47;;;;;;;22.56;33.21;95422.28;5019184;28;20286;-73
2023/10/12 12:00:48;;;;;;;8.52;5.40;;;;;;;22.61;33.02;95407.22;5019211;28;20229;-76
2023/10/12 12:03:15;;;;;;;10.98;6.18;;;;;;;22.61;33.66;95420.59;5013524;28;20217;-78
2023/10/12 12:05:43;;;;;;;7.53;6.53;;;;;;;22.81;32.60;95414.28;5013184;28;20244;-77
2023/10/12 12:08:17;;;;;;;8.27;4.88;;;;;;;22.92;32.00;95410.88;5014187;28;20228;-73
2023/10/12 12:10:54;;;;;;;8.00;4.90;;;;;;;22.89;31.67;95406.75;5013629;28;20229;-72
2023/10/12 12:13:20;;;;;;;8.18;4.72;;;;;;;23.04;31.71;95411.00;5011642;28;20233;-74
2023/10/12 12:15:47;;;;;;;7.63;4.90;;;;;;;23.19;31.49;95408.81;5014753;28;20329;-79
2023/10/12 12:18:19;;;;;;;7.68;5.50;;;;;;;23.49;31.09;95400.84;5013614;28;20711;-70
2023/10/12 12:20:51;;;;;;;7.45;4.95;;;;;;;24.12;30.21;95399.72;5017058;28;20656;-73
2023/10/12 12:23:26;;;;;;;6.85;4.65;;;;;;;24.75;29.31;95386.84;5018801;28;20170;-76
2023/10/12 12:25:59;;;;;;;6.65;4.22;;;;;;;25.64;27.57;95394.88;5021094;28;20210;-74
2023/10/12 12:28:31;;;;;;;8.60;4.93;;;;;;;27.54;25.42;95386.41;5018788;28;20214;-76
2023/10/12 12:31:00;;;;;;;7.03;4.70;;;;;;;28.55;23.88;95383.31;5019747;28;20283;-76
2023/10/12 12:33:26;;;;;;;13.43;5.38;;;;;;;29.76;22.56;95386.41;5017171;28;20242;-75
2023/10/12 12:36:01;;;;;;;7.03;4.35;;;;;;;31.37;20.21;95388.13;5020651;28;20232;-71
2023/10/12 12:41:05;;;;;;;9.07;5.13;;;;;;;34.15;17.65;95386.06;5016913;28;20215;-79
2023/10/12 12:43:34;;;;;;;12.48;5.00;;;;;;;35.44;16.46;95376.78;5016257;28;20215;-76
2023/10/12 12:45:59;;;;;;;8.93;5.97;;;;;;;35.66;15.76;95376.13;5026079;28;20226;-77
2023/10/12 12:48:25;;;;;;;9.75;5.05;;;;;;;36.70;15.10;95374.56;5021872;28;20225;-78
2023/10/12 12:50:50;;;;;;;9.02;5.75;;;;;;;37.51;14.14;95371.00;5026952;28;20217;-73
2023/10/12 12:53:19;;;;;;;9.52;5.93;;;;;;;37.91;13.75;95365.53;5019646;28;20715;-74
2023/10/12 12:55:47;;;;;;;8.30;6.20;;;;;;;38.63;13.46;95363.44;5016965;28;20301;-79
2023/10/12 12:58:18;;;;;;;8.00;6.32;;;;;;;38.53;12.92;95362.63;5015061;28;20223;-74
2023/10/12 13:00:50;;;;;;;11.65;6.38;;;;;;;38.64;13.14;95356.84;5017771;28;20225;-75
2023/10/12 13:03:16;;;;;;;7.00;5.90;;;;;;;39.28;12.43;95345.97;5022842;28;20233;-72
2023/10/12 13:05:42;;;;;;;9.23;6.60;;;;;;;39.45;12.61;95351.44;5020005;28;20233;-78
2023/10/12 13:08:07;;;;;;;7.63;7.03;;;;;;;39.62;12.06;95358.03;5018634;28;20190;-72
2023/10/12 13:10:38;;;;;;;9.48;6.40;;;;;;;39.81;12.22;95344.72;5016795;28;20223;-74
2023/10/12 13:13:04;;;;;;;7.85;7.05;;;;;;;40.43;11.43;95351.50;5016531;28;20218;-77
2023/10/12 13:15:41;;;;;;;8.45;7.72;;;;;;;40.86;11.32;95344.88;5015072;28;20252;-76
2023/10/12 13:18:15;;;;;;;8.95;8.23;;;;;;;40.26;11.69;95348.84;5016375;28;20657;-76
2023/10/12 13:20:48;;;;;;;10.07;9.30;;;;;;;40.53;11.36;95342.06;5015996;28;20206;-75
2023/10/12 13:23:17;;;;;;;10.65;9.93;;;;;;;40.95;10.90;95339.28;5023560;28;20619;-75
2023/10/12 13:25:42;;;;;;;13.15;11.80;;;;;;;40.79;11.17;95336.34;5019808;28;20293;-79
2023/10/12 13:28:10;;;;;;;19.27;17.58;;;;;;;41.68;10.64;95332.44;5017912;28;20297;-78
2023/10/12 13:30:36;;;;;;;20.63;19.08;;;;;;;41.35;10.97;95338.75;5014470;28;20700;-77
2023/10/12 13:33:05;;;;;;;28.02;26.45;;;;;;;41.92;10.41;95334.44;5020603;28;20218;-79
2023/10/12 13:35:45;;;;;;;30.83;29.02;;;;;;;41.72;10.74;95328.63;5019886;28;20277;-75
2023/10/12 13:38:14;;;;;;;34.47;32.15;;;;;;;41.77;10.13;95327.59;5022109;28;20222;-77
2023/10/12 13:40:43;;;;;;;1999.90;999.90;;;;;;;41.58;10.60;95319.88;5023523;28;20292;-77
2023/10/12 13:43:15;;;;;;;1999.90;999.90;;;;;;;42.40;9.83;95319.78;5020657;28;20233;-75
2023/10/12 13:45:51;;;;;;;1999.90;999.90;;;;;;;41.72;10.20;95319.53;5017317;28;20293;-75
2023/10/12 13:48:22;;;;;;;1999.90;999.90;;;;;;;42.78;9.75;95315.78;5017986;28;20263;-71
2023/10/12 13:50:59;;;;;;;1999.90;999.90;;;;;;;43.03;9.56;95307.38;5015468;28;20197;-74
2023/10/12 13:53:28;;;;;;;1999.90;999.90;;;;;;;43.18;9.36;95317.72;5017104;28;20178;-74
2023/10/12 13:55:54;;;;;;;1999.90;999.90;;;;;;;43.42;9.14;95308.47;5016929;28;20474;-74
2023/10/12 13:58:24;;;;;;;1999.90;999.90;;;;;;;43.94;8.45;95309.38;5021231;28;20223;-74
2023/10/12 14:00:51;;;;;;;1999.90;999.90;;;;;;;44.26;8.64;95304.59;5016194;28;20222;-74
2023/10/12 14:03:17;;;;;;;1999.90;999.90;;;;;;;43.74;8.84;95294.66;5018841;28;20304;-72
2023/10/12 14:05:43;;;;;;;1999.90;999.90;;;;;;;43.89;8.67;95293.00;5023311;28;20276;-74
2023/10/12 14:08:12;;;;;;;38.88;36.20;;;;;;;44.47;8.49;95298.75;5019213;28;20640;-77
2023/10/12 14:10:42;;;;;;;30.77;28.77;;;;;;;44.74;8.52;95296.94;5010119;28;20375;-75